createdAt,value
2018-03-28T00:00:11.445Z,71.87
2018-03-28T00:02:39.164Z,74.55
2018-03-28T00:05:06.980Z,74.82
2018-03-28T00:07:34.738Z,71.51
2018-03-28T00:10:02.604Z,70.72
2018-03-28T00:12:30.242Z,70.37
2018-03-28T00:14:57.919Z,70.10
2018-03-28T00:17:25.663Z,70.27
2018-03-28T00:19:53.398Z,70.75
2018-03-28T00:22:21.219Z,72.77
2018-03-28T00:24:49.188Z,72.04
2018-03-28T00:27:17.055Z,71.09
2018-03-28T00:29:44.820Z,69.70
2018-03-28T00:32:12.584Z,69.83
2018-03-28T00:34:40.349Z,69.02
2018-03-28T00:37:08.215Z,70.34
2018-03-28T00:39:36.083Z,70.50
2018-03-28T00:42:03.921Z,70.51
2018-03-28T00:44:31.714Z,69.83
2018-03-28T00:46:59.426Z,69.25
2018-03-28T00:49:27.140Z,69.05
2018-03-28T00:51:54.868Z,69.20
2018-03-28T00:54:22.675Z,70.30
2018-03-28T00:56:50.394Z,69.31
2018-03-28T00:59:18.162Z,68.76
2018-03-28T01:01:45.902Z,68.83
2018-03-28T01:04:13.727Z,70.26
2018-03-28T01:06:41.490Z,69.33
2018-03-28T01:09:09.367Z,68.57
2018-03-28T01:11:37.126Z,68.98
2018-03-28T01:14:04.935Z,68.33
2018-03-28T01:16:32.707Z,68.91
2018-03-28T01:19:00.521Z,69.19
2018-03-28T01:21:28.287Z,68.51
2018-03-28T01:23:56.251Z,69.80
2018-03-28T01:26:24.019Z,67.84
2018-03-28T01:28:51.832Z,69.72
2018-03-28T01:31:19.652Z,68.35
2018-03-28T01:33:47.516Z,68.60
2018-03-28T01:36:15.231Z,68.64
2018-03-28T01:38:43.045Z,68.61
2018-03-28T01:41:10.698Z,68.99
2018-03-28T01:43:38.429Z,70.51
2018-03-28T01:46:06.235Z,71.27
2018-03-28T01:48:34.100Z,71.71
2018-03-28T01:51:01.804Z,68.94
2018-03-28T01:53:29.635Z,70.55
2018-03-28T01:55:57.496Z,69.58
2018-03-28T01:58:25.363Z,70.97
2018-03-28T02:00:53.073Z,71.44
2018-03-28T02:03:20.995Z,71.09
2018-03-28T02:05:48.827Z,68.97
2018-03-28T02:08:16.624Z,68.50
2018-03-28T02:10:44.499Z,68.74
2018-03-28T02:13:12.260Z,68.32
2018-03-28T02:15:40.137Z,70.18
2018-03-28T02:18:07.887Z,69.20
2018-03-28T02:20:35.857Z,69.60
2018-03-28T02:23:03.567Z,68.86
2018-03-28T02:25:31.385Z,68.46
2018-03-28T02:27:59.152Z,69.78
2018-03-28T02:30:27.017Z,70.01
2018-03-28T02:32:54.732Z,71.00
2018-03-28T02:35:22.546Z,71.31
2018-03-28T02:37:50.310Z,70.92
2018-03-28T02:40:18.078Z,70.72
2018-03-28T02:42:45.833Z,70.45
2018-03-28T02:45:13.705Z,70.39
2018-03-28T02:47:41.431Z,70.39
2018-03-28T02:50:09.227Z,68.95
2018-03-28T02:52:36.938Z,67.34
2018-03-28T02:55:04.764Z,69.00
2018-03-28T02:57:32.527Z,68.40
2018-03-28T03:00:00.363Z,67.46
2018-03-28T03:02:28.110Z,69.24
2018-03-28T03:04:55.826Z,68.54
2018-03-28T03:07:23.539Z,67.74
2018-03-28T03:09:51.249Z,69.81
2018-03-28T03:12:18.971Z,69.98
2018-03-28T03:14:46.778Z,69.09
2018-03-28T03:17:14.482Z,68.52
2018-03-28T03:19:42.303Z,67.41
2018-03-28T03:22:10.071Z,68.56
2018-03-28T03:24:37.941Z,69.80
2018-03-28T03:27:05.704Z,69.62
2018-03-28T03:29:33.466Z,68.95
2018-03-28T03:32:01.230Z,69.62
2018-03-28T03:34:28.942Z,70.90
2018-03-28T03:36:56.771Z,70.35
2018-03-28T03:39:24.631Z,70.49
2018-03-28T03:41:52.341Z,71.35
2018-03-28T03:44:20.117Z,69.96
2018-03-28T03:46:47.918Z,69.92
2018-03-28T03:49:15.741Z,70.82
2018-03-28T03:51:43.549Z,70.98
2018-03-28T03:54:11.418Z,71.06
2018-03-28T03:56:39.163Z,70.87
2018-03-28T03:59:07.008Z,70.71
2018-03-28T04:01:34.812Z,70.74
2018-03-28T04:04:02.576Z,70.43
2018-03-28T04:06:30.543Z,70.70
2018-03-28T04:08:58.411Z,70.42
2018-03-28T04:11:26.213Z,70.59
2018-03-28T04:13:53.936Z,70.86
2018-03-28T04:16:21.651Z,70.59
2018-03-28T04:18:49.476Z,69.97
2018-03-28T04:21:17.281Z,70.60
2018-03-28T04:23:45.097Z,70.50
2018-03-28T04:26:12.865Z,70.70
2018-03-28T04:28:40.733Z,70.86
2018-03-28T04:31:08.606Z,70.95
2018-03-28T04:33:36.260Z,71.10
2018-03-28T04:36:04.130Z,70.55
2018-03-28T04:38:31.895Z,71.52
2018-03-28T04:40:59.758Z,72.76
2018-03-28T04:43:27.479Z,73.65
2018-03-28T04:45:55.289Z,74.59
2018-03-28T04:48:23.052Z,75.07
2018-03-28T04:50:50.783Z,74.47
2018-03-28T04:53:18.580Z,75.60
2018-03-28T04:55:46.477Z,75.90
2018-03-28T04:58:14.222Z,76.38
2018-03-28T05:00:42.056Z,76.15
2018-03-28T05:03:09.842Z,76.39
2018-03-28T05:05:37.709Z,75.88
2018-03-28T05:08:05.419Z,75.59
2018-03-28T05:10:33.237Z,75.80
2018-03-28T05:13:01.008Z,75.89
2018-03-28T05:15:28.817Z,75.72
2018-03-28T05:17:56.633Z,75.24
2018-03-28T05:20:24.398Z,75.07
2018-03-28T05:22:52.116Z,75.68
2018-03-28T05:25:19.837Z,75.04
2018-03-28T05:27:47.480Z,75.25
2018-03-28T05:30:15.251Z,74.86
2018-03-28T05:32:42.918Z,74.54
2018-03-28T05:35:10.723Z,74.23
2018-03-28T05:37:38.571Z,73.53
2018-03-28T05:40:06.410Z,73.36
2018-03-28T05:42:34.073Z,73.79
2018-03-28T05:45:01.838Z,73.36
2018-03-28T05:47:29.499Z,73.29
2018-03-28T05:49:57.267Z,72.70
2018-03-28T05:52:24.986Z,73.97
2018-03-28T05:54:52.697Z,74.38
2018-03-28T05:57:20.421Z,73.38
2018-03-28T05:59:48.122Z,73.19
2018-03-28T06:02:15.882Z,72.72
2018-03-28T06:04:43.646Z,72.51
2018-03-28T06:07:11.366Z,72.52
2018-03-28T06:09:39.126Z,72.48
2018-03-28T06:12:06.938Z,72.44
2018-03-28T06:14:34.806Z,71.73
2018-03-28T06:17:02.570Z,72.07
2018-03-28T06:19:30.231Z,71.25
2018-03-28T06:21:58.006Z,72.63
2018-03-28T06:24:25.708Z,72.16
2018-03-28T06:26:53.528Z,71.21
2018-03-28T06:29:21.291Z,72.17
2018-03-28T06:31:49.044Z,72.26
2018-03-28T06:34:16.802Z,72.80
2018-03-28T06:36:44.536Z,73.10
2018-03-28T06:39:12.349Z,72.72
2018-03-28T06:41:40.111Z,72.84
2018-03-28T06:44:07.978Z,73.56
2018-03-28T06:46:35.844Z,72.73
2018-03-28T06:49:03.605Z,72.36
2018-03-28T06:51:31.372Z,72.68
2018-03-28T06:53:59.138Z,72.13
2018-03-28T06:56:27.005Z,71.56
2018-03-28T06:58:54.742Z,70.58
2018-03-28T07:01:22.553Z,70.46
2018-03-28T07:03:50.195Z,69.42
2018-03-28T07:06:17.961Z,70.55
2018-03-28T07:08:45.651Z,69.45
2018-03-28T07:11:13.443Z,70.30
2018-03-28T07:13:41.254Z,70.32
2018-03-28T07:16:09.017Z,70.06
2018-03-28T07:18:36.736Z,70.11
2018-03-28T07:21:04.649Z,70.06
2018-03-28T07:23:32.381Z,69.67
2018-03-28T07:26:00.178Z,69.58
2018-03-28T07:28:27.841Z,69.61
2018-03-28T07:30:55.552Z,69.12
2018-03-28T07:33:23.257Z,67.79
2018-03-28T07:35:51.025Z,68.49
2018-03-28T07:38:18.749Z,68.39
2018-03-28T07:40:46.560Z,67.89
2018-03-28T07:43:14.277Z,67.36
2018-03-28T07:45:41.988Z,67.74
2018-03-28T07:48:09.709Z,67.93
2018-03-28T07:50:37.414Z,66.90
2018-03-28T07:53:05.176Z,66.61
2018-03-28T07:55:32.942Z,66.82
2018-03-28T07:58:00.710Z,65.86
2018-03-28T08:00:28.573Z,67.12
2018-03-28T08:02:56.337Z,67.14
2018-03-28T08:05:24.100Z,67.02
2018-03-28T08:07:51.867Z,66.46
2018-03-28T08:10:19.533Z,67.23
2018-03-28T08:12:47.191Z,66.13
2018-03-28T08:15:15.059Z,65.59
2018-03-28T08:17:42.783Z,64.36
2018-03-28T08:20:10.524Z,62.93
2018-03-28T08:22:38.250Z,61.86
2018-03-28T08:25:06.014Z,61.97
2018-03-28T08:27:33.732Z,61.95
2018-03-28T08:30:01.542Z,61.46
2018-03-28T08:32:29.202Z,62.60
2018-03-28T08:34:56.864Z,62.72
2018-03-28T08:37:24.588Z,62.17
2018-03-28T08:39:52.395Z,62.30
2018-03-28T08:42:20.051Z,62.23
2018-03-28T08:44:47.862Z,63.54
2018-03-28T08:47:15.589Z,62.68
2018-03-28T08:49:43.299Z,63.29
2018-03-28T08:52:11.124Z,64.38
2018-03-28T08:54:38.778Z,64.21
2018-03-28T08:57:06.652Z,62.32
2018-03-28T08:59:34.304Z,62.32
2018-03-28T09:02:02.069Z,63.12
2018-03-28T09:04:29.791Z,63.38
2018-03-28T09:06:57.699Z,63.65
2018-03-28T09:09:25.402Z,62.35
2018-03-28T09:11:53.230Z,62.79
2018-03-28T09:14:20.993Z,61.61
2018-03-28T09:16:48.930Z,61.72
2018-03-28T09:19:16.679Z,62.39
2018-03-28T09:21:44.491Z,62.05
2018-03-28T09:24:12.200Z,62.02
2018-03-28T09:26:40.020Z,62.11
2018-03-28T09:29:07.785Z,60.05
2018-03-28T09:31:35.550Z,60.12
2018-03-28T09:34:03.314Z,60.52
2018-03-28T09:36:30.977Z,60.81
2018-03-28T09:38:58.636Z,62.27
2018-03-28T09:41:26.505Z,62.59
2018-03-28T09:43:54.209Z,63.14
2018-03-28T09:46:22.042Z,62.87
2018-03-28T09:48:49.803Z,63.66
2018-03-28T09:51:17.562Z,63.66
2018-03-28T09:53:45.336Z,63.65
2018-03-28T09:56:13.155Z,63.72
2018-03-28T09:58:40.855Z,63.69
2018-03-28T10:01:08.708Z,63.84
2018-03-28T10:03:52.051Z,64.31
2018-03-28T10:06:19.815Z,62.74
2018-03-28T10:08:47.588Z,62.27
2018-03-28T10:11:15.344Z,62.33
2018-03-28T10:13:43.108Z,60.11
2018-03-28T10:16:10.821Z,58.57
2018-03-28T10:18:38.636Z,57.97
2018-03-28T10:21:06.465Z,57.93
2018-03-28T10:23:34.218Z,57.12
2018-03-28T10:26:02.041Z,56.65
2018-03-28T10:28:29.695Z,55.73
2018-03-28T10:30:57.459Z,56.25
2018-03-28T10:33:25.184Z,56.77
2018-03-28T10:35:52.885Z,56.21
2018-03-28T10:38:20.550Z,56.98
2018-03-28T10:40:48.285Z,56.03
2018-03-28T10:43:16.034Z,55.33
2018-03-28T10:45:43.841Z,55.62
2018-03-28T10:48:11.616Z,55.96
2018-03-28T10:50:39.268Z,55.17
2018-03-28T10:53:07.136Z,54.49
2018-03-28T10:55:34.901Z,53.95
2018-03-28T10:58:02.669Z,52.82
2018-03-28T11:00:30.319Z,52.08
2018-03-28T11:02:58.090Z,52.72
2018-03-28T11:05:25.859Z,52.26
2018-03-28T11:07:53.721Z,52.40
2018-03-28T11:10:21.484Z,50.79
2018-03-28T11:12:49.202Z,50.13
2018-03-28T11:15:17.014Z,50.66
2018-03-28T11:17:44.780Z,50.92
2018-03-28T11:20:12.503Z,50.02
2018-03-28T11:22:40.308Z,50.59
2018-03-28T11:25:08.031Z,50.29
2018-03-28T11:27:35.837Z,50.58
2018-03-28T11:30:03.602Z,48.61
2018-03-28T11:32:31.315Z,48.03
2018-03-28T11:34:59.027Z,48.01
2018-03-28T11:37:26.797Z,48.39
2018-03-28T11:39:54.558Z,48.17
2018-03-28T11:42:22.373Z,48.50
2018-03-28T11:44:50.188Z,47.89
2018-03-28T11:47:18.030Z,47.70
2018-03-28T11:49:45.820Z,48.33
2018-03-28T11:52:13.748Z,46.49
2018-03-28T11:54:41.431Z,46.18
2018-03-28T11:57:09.111Z,46.92
2018-03-28T11:59:36.884Z,47.76
2018-03-28T12:02:04.705Z,47.52
2018-03-28T12:04:32.408Z,47.64
2018-03-28T12:07:00.276Z,47.84
2018-03-28T12:09:28.036Z,47.64
2018-03-28T12:11:55.798Z,47.79
2018-03-28T12:14:23.563Z,46.76
2018-03-28T12:16:51.375Z,47.32
2018-03-28T12:19:19.196Z,46.91
2018-03-28T12:21:46.964Z,47.34
2018-03-28T12:24:14.728Z,46.95
2018-03-28T12:26:42.592Z,47.16
2018-03-28T12:29:10.253Z,46.93
2018-03-28T12:31:38.077Z,49.35
2018-03-28T12:34:06.709Z,51.28
2018-03-28T12:36:34.469Z,52.80
2018-03-28T12:39:02.233Z,53.04
2018-03-28T12:41:29.997Z,56.21
2018-03-28T12:43:57.762Z,57.29
2018-03-28T12:46:25.629Z,56.89
2018-03-28T12:48:53.397Z,58.06
2018-03-28T12:51:21.159Z,57.38
2018-03-28T12:53:48.817Z,57.15
2018-03-28T12:56:16.793Z,59.06
2018-03-28T12:58:44.657Z,58.95
2018-03-28T13:01:12.528Z,59.98
2018-03-28T13:03:40.290Z,60.80
2018-03-28T13:06:07.948Z,62.31
2018-03-28T13:08:35.718Z,61.51
2018-03-28T13:11:03.609Z,62.28
2018-03-28T13:13:31.446Z,60.24
2018-03-28T13:15:59.320Z,62.39
2018-03-28T13:18:27.180Z,64.09
2018-03-28T13:20:54.891Z,63.02
2018-03-28T13:23:22.813Z,61.26
2018-03-28T13:25:50.515Z,62.50
2018-03-28T13:28:18.340Z,61.56
2018-03-28T13:30:45.998Z,61.90
2018-03-28T13:33:13.665Z,61.82
2018-03-28T13:35:41.318Z,63.16
2018-03-28T13:38:09.093Z,62.99
2018-03-28T13:40:36.957Z,63.33
2018-03-28T13:43:04.622Z,63.35
2018-03-28T13:45:32.384Z,63.76
2018-03-28T13:48:00.221Z,63.83
2018-03-28T13:50:27.913Z,66.88
2018-03-28T13:52:55.874Z,68.18
2018-03-28T13:55:23.543Z,70.55
2018-03-28T13:57:51.419Z,71.53
2018-03-28T14:00:19.076Z,72.00
2018-03-28T14:02:46.838Z,71.05
2018-03-28T14:05:14.603Z,72.07
2018-03-28T14:07:42.470Z,71.98
2018-03-28T14:10:10.189Z,73.09
2018-03-28T14:12:38.008Z,72.12
2018-03-28T14:15:05.766Z,72.22
2018-03-28T14:17:33.526Z,70.60
2018-03-28T14:20:01.231Z,69.90
2018-03-28T14:22:29.047Z,70.58
2018-03-28T14:24:56.886Z,71.69
2018-03-28T14:27:24.790Z,73.62
2018-03-28T14:29:52.620Z,75.66
2018-03-28T14:32:20.420Z,72.97
2018-03-28T14:34:48.133Z,72.52
2018-03-28T14:37:15.944Z,73.59
2018-03-28T14:39:43.665Z,73.76
2018-03-28T14:42:11.581Z,74.20
2018-03-28T14:44:39.294Z,74.05
2018-03-28T14:47:07.109Z,74.57
2018-03-28T14:49:34.853Z,72.42
2018-03-28T14:52:02.848Z,70.92
2018-03-28T14:54:30.612Z,70.28
2018-03-28T14:56:58.325Z,71.64
2018-03-28T14:59:26.142Z,72.74
2018-03-28T15:01:54.002Z,74.16
2018-03-28T15:04:21.725Z,76.49
2018-03-28T15:06:49.533Z,77.11
2018-03-28T15:09:17.302Z,77.70
2018-03-28T15:11:45.246Z,77.91
2018-03-28T15:14:13.037Z,77.05
2018-03-28T15:16:40.812Z,77.39
2018-03-28T15:19:08.660Z,78.22
2018-03-28T15:21:36.365Z,78.14
2018-03-28T15:24:04.185Z,77.95
2018-03-28T15:26:31.855Z,79.29
2018-03-28T15:28:59.627Z,79.35
2018-03-28T15:31:27.488Z,79.94
2018-03-28T15:33:55.194Z,79.49
2018-03-28T15:36:22.914Z,77.89
2018-03-28T15:38:50.776Z,75.78
2018-03-28T15:41:18.496Z,73.04
2018-03-28T15:43:46.307Z,70.58
2018-03-28T15:46:14.077Z,70.48
2018-03-28T15:48:41.836Z,69.75
2018-03-28T15:51:09.564Z,69.31
2018-03-28T15:53:37.428Z,69.37
2018-03-28T15:56:05.169Z,69.71
2018-03-28T15:58:32.960Z,68.53
2018-03-28T16:01:00.763Z,69.13
2018-03-28T16:03:28.525Z,68.47
2018-03-28T16:05:56.185Z,68.66
2018-03-28T16:08:24.052Z,68.46
2018-03-28T16:10:51.817Z,67.89
2018-03-28T16:13:19.535Z,68.19
2018-03-28T16:15:47.345Z,68.10
2018-03-28T16:18:15.110Z,68.07
2018-03-28T16:20:42.777Z,68.75
2018-03-28T16:23:10.436Z,69.35
2018-03-28T16:25:38.142Z,68.81
2018-03-28T16:28:05.955Z,67.97
2018-03-28T16:30:33.616Z,67.70
2018-03-28T16:33:01.389Z,67.69
2018-03-28T16:35:29.115Z,68.34
2018-03-28T16:37:57.020Z,68.17
2018-03-28T16:40:24.748Z,67.64
2018-03-28T16:42:52.507Z,67.03
2018-03-28T16:45:20.417Z,67.23
2018-03-28T16:47:48.244Z,67.31
2018-03-28T16:50:15.951Z,67.79
2018-03-28T16:52:43.813Z,68.34
2018-03-28T16:55:11.475Z,68.26
2018-03-28T16:57:39.343Z,69.25
2018-03-28T17:00:07.208Z,70.98
2018-03-28T17:02:34.922Z,72.53
2018-03-28T17:05:02.839Z,72.54
2018-03-28T17:07:30.649Z,72.85
2018-03-28T17:09:58.471Z,74.75
2018-03-28T17:12:26.234Z,74.10
2018-03-28T17:14:53.998Z,73.21
2018-03-28T17:17:21.763Z,72.08
2018-03-28T17:19:49.604Z,70.57
2018-03-28T17:22:17.358Z,70.64
2018-03-28T17:24:45.114Z,71.51
2018-03-28T17:27:12.923Z,70.86
2018-03-28T17:29:40.745Z,71.71
2018-03-28T17:32:08.453Z,72.63
2018-03-28T17:34:36.181Z,73.43
2018-03-28T17:37:03.926Z,72.06
2018-03-28T17:39:31.745Z,70.77
2018-03-28T17:41:59.510Z,69.67
2018-03-28T17:44:27.386Z,69.24
2018-03-28T17:46:55.244Z,69.01
2018-03-28T17:49:23.109Z,68.00
2018-03-28T17:51:50.820Z,67.58
2018-03-28T17:54:18.741Z,67.34
2018-03-28T17:56:46.461Z,68.03
2018-03-28T17:59:14.220Z,67.76
2018-03-28T18:01:41.933Z,67.75
2018-03-28T18:04:09.752Z,68.00
2018-03-28T18:06:37.563Z,68.00
2018-03-28T18:09:06.250Z,68.04
2018-03-28T18:11:33.977Z,67.84
2018-03-28T18:14:01.719Z,68.89
2018-03-28T18:16:29.542Z,67.92
2018-03-28T18:18:57.409Z,68.76
2018-03-28T18:21:25.283Z,69.65
2018-03-28T18:23:53.109Z,69.67
2018-03-28T18:26:20.908Z,69.96
2018-03-28T18:28:48.671Z,69.93
2018-03-28T18:31:16.540Z,69.55
2018-03-28T18:33:44.302Z,69.38
2018-03-28T18:36:12.117Z,68.37
2018-03-28T18:38:39.934Z,68.18
2018-03-28T18:41:07.753Z,67.74
2018-03-28T18:43:35.462Z,67.39
2018-03-28T18:46:03.283Z,67.25
2018-03-28T18:48:31.099Z,67.25
2018-03-28T18:50:58.962Z,68.23
2018-03-28T18:53:26.837Z,68.17
2018-03-28T18:55:54.697Z,68.11
2018-03-28T18:58:22.459Z,67.98
2018-03-28T19:00:50.227Z,67.27
2018-03-28T19:03:17.949Z,67.42
2018-03-28T19:05:45.715Z,67.64
2018-03-28T19:08:13.460Z,67.18
2018-03-28T19:10:41.281Z,67.24
2018-03-28T19:13:09.061Z,66.56
2018-03-28T19:15:36.918Z,67.65
2018-03-28T19:18:04.624Z,69.52
2018-03-28T19:20:32.441Z,69.43
2018-03-28T19:23:00.157Z,70.44
2018-03-28T19:25:27.954Z,70.37
2018-03-28T19:27:55.689Z,70.35
2018-03-28T19:30:23.498Z,70.16
2018-03-28T19:32:51.366Z,70.30
2018-03-28T19:35:19.133Z,70.32
2018-03-28T19:37:46.895Z,69.69
2018-03-28T19:40:14.659Z,67.30
2018-03-28T19:42:42.526Z,68.90
2018-03-28T19:45:10.256Z,67.30
2018-03-28T19:47:37.997Z,68.13
2018-03-28T19:50:05.717Z,67.26
2018-03-28T19:52:33.480Z,67.24
2018-03-28T19:55:01.347Z,67.29
2018-03-28T19:57:29.215Z,66.00
2018-03-28T19:59:56.885Z,64.72
2018-03-28T20:02:24.723Z,64.38
2018-03-28T20:04:52.461Z,64.10
2018-03-28T20:07:20.275Z,64.30
2018-03-28T20:09:48.097Z,64.86
2018-03-28T20:12:15.904Z,64.75
2018-03-28T20:14:43.733Z,64.18
2018-03-28T20:17:11.434Z,64.71
2018-03-28T20:19:39.259Z,64.55
2018-03-28T20:22:07.065Z,64.80
2018-03-28T20:24:34.767Z,64.91
2018-03-28T20:27:02.592Z,63.93
2018-03-28T20:29:30.357Z,62.54
2018-03-28T20:31:58.121Z,62.65
2018-03-28T20:34:25.783Z,62.98
2018-03-28T20:36:53.500Z,62.46
2018-03-28T20:39:21.312Z,62.70
2018-03-28T20:41:49.032Z,62.23
2018-03-28T20:44:16.841Z,62.09
2018-03-28T20:46:44.508Z,62.53
2018-03-28T20:49:12.377Z,62.04
2018-03-28T20:51:40.035Z,62.57
2018-03-28T20:54:07.866Z,62.38
2018-03-28T20:56:35.612Z,62.91
2018-03-28T20:59:03.325Z,62.62
2018-03-28T21:01:31.070Z,62.53
2018-03-28T21:03:58.805Z,62.51
2018-03-28T21:06:26.569Z,62.68
2018-03-28T21:08:54.383Z,62.12
2018-03-28T21:11:22.250Z,62.52
2018-03-28T21:13:49.913Z,63.73
2018-03-28T21:16:17.778Z,62.90
2018-03-28T21:18:45.446Z,62.17
2018-03-28T21:21:13.108Z,62.49
2018-03-28T21:23:40.766Z,61.80
2018-03-28T21:26:08.632Z,61.80
2018-03-28T21:28:36.330Z,61.86
2018-03-28T21:31:04.168Z,61.79
2018-03-28T21:33:31.931Z,61.31
2018-03-28T21:35:59.640Z,60.73
2018-03-28T21:38:27.460Z,60.77
2018-03-28T21:40:55.320Z,60.01
2018-03-28T21:43:23.112Z,59.09
2018-03-28T21:45:50.849Z,59.44
2018-03-28T21:48:18.614Z,58.74
2018-03-28T21:50:46.378Z,59.11
2018-03-28T21:53:14.135Z,58.38
2018-03-28T21:55:41.908Z,57.81
2018-03-28T21:58:09.774Z,57.55
2018-03-28T22:00:37.602Z,56.63
2018-03-28T22:03:05.345Z,57.17
2018-03-28T22:05:33.054Z,55.13
2018-03-28T22:08:00.832Z,55.72
2018-03-28T22:10:28.494Z,55.84
2018-03-28T22:12:56.367Z,55.28
2018-03-28T22:15:24.124Z,54.03
2018-03-28T22:17:51.889Z,54.92
2018-03-28T22:20:19.654Z,55.32
2018-03-28T22:22:47.520Z,54.87
2018-03-28T22:25:15.242Z,54.38
2018-03-28T22:27:43.050Z,54.45
2018-03-28T22:30:10.716Z,54.97
2018-03-28T22:32:38.475Z,54.71
2018-03-28T22:35:06.184Z,54.76
2018-03-28T22:37:34.004Z,54.37
2018-03-28T22:40:01.776Z,54.67
2018-03-28T22:42:29.541Z,54.77
2018-03-28T22:44:57.195Z,55.15
2018-03-28T22:47:24.913Z,54.85
2018-03-28T22:49:52.725Z,55.02
2018-03-28T22:52:20.387Z,55.60
2018-03-28T22:54:48.057Z,56.06
2018-03-28T22:57:15.755Z,56.49
2018-03-28T22:59:43.577Z,56.13
2018-03-28T23:02:11.347Z,55.73
2018-03-28T23:04:39.106Z,55.88
2018-03-28T23:07:06.772Z,55.90
2018-03-28T23:09:34.584Z,56.42
2018-03-28T23:12:02.195Z,56.41
2018-03-28T23:14:29.959Z,56.09
2018-03-28T23:16:57.725Z,56.39
2018-03-28T23:19:25.589Z,56.72
2018-03-28T23:21:53.239Z,56.66
2018-03-28T23:24:20.914Z,56.40
2018-03-28T23:26:48.631Z,56.68
2018-03-28T23:29:16.340Z,56.81
2018-03-28T23:31:44.057Z,56.84
2018-03-28T23:34:11.873Z,56.23
2018-03-28T23:36:39.519Z,56.32
2018-03-28T23:39:07.296Z,56.21
2018-03-28T23:41:35.060Z,55.88
2018-03-28T23:44:02.770Z,56.09
2018-03-28T23:46:30.588Z,56.34
2018-03-28T23:48:58.353Z,56.31
2018-03-28T23:51:26.003Z,56.44
2018-03-28T23:53:53.677Z,56.12
2018-03-28T23:56:21.328Z,55.64
2018-03-28T23:58:49.003Z,55.30
